sensor_id;sensor_type;location;lat;lon;timestamp;P1;durP1;ratioP1;P2;durP2;ratioP2
58864;SDS011;45702;52.982;6.658;2022-12-18T00:00:20;190.38;;;40.22;;
58864;SDS011;45702;52.982;6.658;2022-12-18T00:02:46;200.02;;;42.00;;
58864;SDS011;45702;52.982;6.658;2022-12-18T00:05:12;178.23;;;38.80;;
58864;SDS011;45702;52.982;6.658;2022-12-18T00:07:38;211.73;;;42.60;;
58864;SDS011;45702;52.982;6.658;2022-12-18T00:10:04;181.25;;;39.97;;
58864;SDS011;45702;52.982;6.658;2022-12-18T00:12:31;191.05;;;42.33;;
58864;SDS011;45702;52.982;6.658;2022-12-18T00:14:57;188.50;;;38.45;;
58864;SDS011;45702;52.982;6.658;2022-12-18T00:17:26;203.13;;;41.33;;
58864;SDS011;45702;52.982;6.658;2022-12-18T00:19:52;189.35;;;41.75;;
58864;SDS011;45702;52.982;6.658;2022-12-18T00:22:18;200.43;;;40.83;;
58864;SDS011;45702;52.982;6.658;2022-12-18T00:24:44;210.77;;;44.60;;
58864;SDS011;45702;52.982;6.658;2022-12-18T00:27:10;190.50;;;41.88;;
58864;SDS011;45702;52.982;6.658;2022-12-18T00:29:36;218.48;;;44.63;;
58864;SDS011;45702;52.982;6.658;2022-12-18T00:32:04;214.32;;;46.10;;
58864;SDS011;45702;52.982;6.658;2022-12-18T00:34:30;210.10;;;44.53;;
58864;SDS011;45702;52.982;6.658;2022-12-18T00:36:59;213.20;;;43.40;;
58864;SDS011;45702;52.982;6.658;2022-12-18T00:39:25;210.95;;;44.38;;
58864;SDS011;45702;52.982;6.658;2022-12-18T00:41:51;218.45;;;43.63;;
58864;SDS011;45702;52.982;6.658;2022-12-18T00:44:36;236.95;;;46.60;;
58864;SDS011;45702;52.982;6.658;2022-12-18T00:47:02;217.23;;;42.08;;
58864;SDS011;45702;52.982;6.658;2022-12-18T00:49:28;209.25;;;42.40;;
58864;SDS011;45702;52.982;6.658;2022-12-18T00:51:54;198.80;;;42.65;;
58864;SDS011;45702;52.982;6.658;2022-12-18T00:54:20;200.52;;;42.05;;
58864;SDS011;45702;52.982;6.658;2022-12-18T00:56:46;196.63;;;41.65;;
58864;SDS011;45702;52.982;6.658;2022-12-18T00:59:12;188.65;;;41.13;;
58864;SDS011;45702;52.982;6.658;2022-12-18T01:01:38;198.43;;;43.97;;
58864;SDS011;45702;52.982;6.658;2022-12-18T01:06:33;178.68;;;41.38;;
58864;SDS011;45702;52.982;6.658;2022-12-18T01:08:59;201.63;;;44.08;;
58864;SDS011;45702;52.982;6.658;2022-12-18T01:13:54;159.88;;;33.70;;
58864;SDS011;45702;52.982;6.658;2022-12-18T01:16:20;184.60;;;43.17;;
58864;SDS011;45702;52.982;6.658;2022-12-18T01:18:47;200.40;;;43.35;;
58864;SDS011;45702;52.982;6.658;2022-12-18T01:21:14;197.48;;;43.25;;
58864;SDS011;45702;52.982;6.658;2022-12-18T01:23:40;223.90;;;44.33;;
58864;SDS011;45702;52.982;6.658;2022-12-18T01:26:07;215.07;;;45.30;;
58864;SDS011;45702;52.982;6.658;2022-12-18T01:28:33;227.85;;;46.70;;
58864;SDS011;45702;52.982;6.658;2022-12-18T01:31:12;223.00;;;47.38;;
58864;SDS011;45702;52.982;6.658;2022-12-18T01:33:39;212.00;;;46.72;;
58864;SDS011;45702;52.982;6.658;2022-12-18T01:36:05;215.93;;;46.03;;
58864;SDS011;45702;52.982;6.658;2022-12-18T01:38:31;216.18;;;46.22;;
58864;SDS011;45702;52.982;6.658;2022-12-18T01:41:00;222.98;;;47.58;;
58864;SDS011;45702;52.982;6.658;2022-12-18T01:46:11;211.38;;;44.42;;
58864;SDS011;45702;52.982;6.658;2022-12-18T01:48:37;217.65;;;46.42;;
58864;SDS011;45702;52.982;6.658;2022-12-18T01:51:04;212.32;;;48.30;;
58864;SDS011;45702;52.982;6.658;2022-12-18T01:53:31;214.48;;;47.10;;
58864;SDS011;45702;52.982;6.658;2022-12-18T01:55:57;214.57;;;49.22;;
58864;SDS011;45702;52.982;6.658;2022-12-18T01:58:29;237.63;;;48.77;;
58864;SDS011;45702;52.982;6.658;2022-12-18T02:00:56;228.93;;;50.55;;
58864;SDS011;45702;52.982;6.658;2022-12-18T02:03:22;219.68;;;51.00;;
58864;SDS011;45702;52.982;6.658;2022-12-18T02:05:57;226.70;;;50.72;;
58864;SDS011;45702;52.982;6.658;2022-12-18T02:16:02;224.43;;;53.05;;
58864;SDS011;45702;52.982;6.658;2022-12-18T02:18:38;235.40;;;53.42;;
58864;SDS011;45702;52.982;6.658;2022-12-18T02:26:50;231.25;;;49.03;;
58864;SDS011;45702;52.982;6.658;2022-12-18T02:29:21;206.20;;;48.10;;
58864;SDS011;45702;52.982;6.658;2022-12-18T02:31:52;221.48;;;50.58;;
58864;SDS011;45702;52.982;6.658;2022-12-18T02:34:18;232.48;;;50.85;;
58864;SDS011;45702;52.982;6.658;2022-12-18T02:36:45;225.52;;;52.65;;
58864;SDS011;45702;52.982;6.658;2022-12-18T02:39:12;220.10;;;52.85;;
58864;SDS011;45702;52.982;6.658;2022-12-18T02:41:39;221.43;;;52.15;;
58864;SDS011;45702;52.982;6.658;2022-12-18T02:44:07;228.15;;;51.83;;
58864;SDS011;45702;52.982;6.658;2022-12-18T02:46:38;224.87;;;49.13;;
58864;SDS011;45702;52.982;6.658;2022-12-18T02:51:51;219.07;;;52.60;;
58864;SDS011;45702;52.982;6.658;2022-12-18T02:54:21;206.70;;;49.78;;
58864;SDS011;45702;52.982;6.658;2022-12-18T02:56:50;222.95;;;53.47;;
58864;SDS011;45702;52.982;6.658;2022-12-18T02:59:18;223.18;;;52.05;;
58864;SDS011;45702;52.982;6.658;2022-12-18T03:04:50;214.32;;;47.92;;
58864;SDS011;45702;52.982;6.658;2022-12-18T03:07:22;200.23;;;49.92;;
58864;SDS011;45702;52.982;6.658;2022-12-18T03:09:50;182.57;;;43.75;;
58864;SDS011;45702;52.982;6.658;2022-12-18T03:12:50;200.68;;;46.95;;
58864;SDS011;45702;52.982;6.658;2022-12-18T03:15:10;179.23;;;46.78;;
58864;SDS011;45702;52.982;6.658;2022-12-18T03:20:07;185.18;;;47.97;;
58864;SDS011;45702;52.982;6.658;2022-12-18T03:22:35;178.93;;;44.45;;
58864;SDS011;45702;52.982;6.658;2022-12-18T03:25:04;185.68;;;45.97;;
58864;SDS011;45702;52.982;6.658;2022-12-18T03:27:31;203.23;;;49.13;;
58864;SDS011;45702;52.982;6.658;2022-12-18T03:30:03;179.00;;;47.70;;
58864;SDS011;45702;52.982;6.658;2022-12-18T03:32:33;192.50;;;49.58;;
58864;SDS011;45702;52.982;6.658;2022-12-18T03:35:02;175.25;;;44.10;;
58864;SDS011;45702;52.982;6.658;2022-12-18T03:37:30;192.18;;;48.50;;
58864;SDS011;45702;52.982;6.658;2022-12-18T03:39:56;202.23;;;49.15;;
58864;SDS011;45702;52.982;6.658;2022-12-18T03:44:51;183.40;;;47.08;;
58864;SDS011;45702;52.982;6.658;2022-12-18T03:47:36;189.70;;;49.03;;
58864;SDS011;45702;52.982;6.658;2022-12-18T03:50:16;183.23;;;46.78;;
58864;SDS011;45702;52.982;6.658;2022-12-18T03:52:54;186.38;;;50.90;;
58864;SDS011;45702;52.982;6.658;2022-12-18T03:55:23;182.82;;;47.60;;
58864;SDS011;45702;52.982;6.658;2022-12-18T03:57:50;172.32;;;47.30;;
58864;SDS011;45702;52.982;6.658;2022-12-18T04:00:17;148.05;;;42.45;;
58864;SDS011;45702;52.982;6.658;2022-12-18T04:02:45;164.98;;;45.13;;
58864;SDS011;45702;52.982;6.658;2022-12-18T04:05:13;167.57;;;45.83;;
58864;SDS011;45702;52.982;6.658;2022-12-18T04:07:40;165.20;;;44.35;;
58864;SDS011;45702;52.982;6.658;2022-12-18T04:10:06;172.65;;;46.38;;
58864;SDS011;45702;52.982;6.658;2022-12-18T04:12:33;154.20;;;42.75;;
58864;SDS011;45702;52.982;6.658;2022-12-18T04:14:59;160.32;;;44.20;;
58864;SDS011;45702;52.982;6.658;2022-12-18T04:17:25;153.73;;;44.60;;
58864;SDS011;45702;52.982;6.658;2022-12-18T04:19:51;155.35;;;43.30;;
58864;SDS011;45702;52.982;6.658;2022-12-18T04:22:17;149.05;;;41.95;;
58864;SDS011;45702;52.982;6.658;2022-12-18T04:24:43;136.35;;;42.72;;
58864;SDS011;45702;52.982;6.658;2022-12-18T04:27:09;152.32;;;44.65;;
58864;SDS011;45702;52.982;6.658;2022-12-18T04:29:36;146.35;;;43.50;;
58864;SDS011;45702;52.982;6.658;2022-12-18T04:32:02;146.05;;;39.03;;
58864;SDS011;45702;52.982;6.658;2022-12-18T04:34:28;151.30;;;41.42;;
58864;SDS011;45702;52.982;6.658;2022-12-18T04:36:54;137.88;;;40.55;;
58864;SDS011;45702;52.982;6.658;2022-12-18T04:39:20;152.82;;;43.47;;
58864;SDS011;45702;52.982;6.658;2022-12-18T04:41:46;140.52;;;42.63;;
58864;SDS011;45702;52.982;6.658;2022-12-18T04:44:13;131.23;;;38.72;;
58864;SDS011;45702;52.982;6.658;2022-12-18T04:46:39;145.18;;;41.28;;
58864;SDS011;45702;52.982;6.658;2022-12-18T04:49:05;124.75;;;37.60;;
58864;SDS011;45702;52.982;6.658;2022-12-18T04:51:31;128.30;;;38.70;;
58864;SDS011;45702;52.982;6.658;2022-12-18T04:53:57;121.20;;;37.00;;
58864;SDS011;45702;52.982;6.658;2022-12-18T04:56:23;124.00;;;40.08;;
58864;SDS011;45702;52.982;6.658;2022-12-18T04:58:49;124.03;;;36.03;;
58864;SDS011;45702;52.982;6.658;2022-12-18T05:01:16;128.15;;;36.17;;
58864;SDS011;45702;52.982;6.658;2022-12-18T05:03:42;133.75;;;38.95;;
58864;SDS011;45702;52.982;6.658;2022-12-18T05:06:09;118.55;;;37.53;;
58864;SDS011;45702;52.982;6.658;2022-12-18T05:08:35;123.35;;;38.95;;
58864;SDS011;45702;52.982;6.658;2022-12-18T05:11:02;120.68;;;38.33;;
58864;SDS011;45702;52.982;6.658;2022-12-18T05:13:29;118.38;;;37.10;;
58864;SDS011;45702;52.982;6.658;2022-12-18T05:15:55;121.38;;;38.28;;
58864;SDS011;45702;52.982;6.658;2022-12-18T05:18:22;124.28;;;37.33;;
58864;SDS011;45702;52.982;6.658;2022-12-18T05:20:48;117.15;;;37.50;;
58864;SDS011;45702;52.982;6.658;2022-12-18T05:23:14;120.78;;;37.33;;
58864;SDS011;45702;52.982;6.658;2022-12-18T05:25:40;113.78;;;37.97;;
58864;SDS011;45702;52.982;6.658;2022-12-18T05:28:07;124.95;;;38.10;;
58864;SDS011;45702;52.982;6.658;2022-12-18T05:30:33;127.00;;;38.92;;
58864;SDS011;45702;52.982;6.658;2022-12-18T05:32:59;117.35;;;39.03;;
58864;SDS011;45702;52.982;6.658;2022-12-18T05:35:25;122.97;;;38.78;;
58864;SDS011;45702;52.982;6.658;2022-12-18T05:37:51;117.57;;;39.42;;
58864;SDS011;45702;52.982;6.658;2022-12-18T05:40:17;124.70;;;37.72;;
58864;SDS011;45702;52.982;6.658;2022-12-18T05:42:43;123.60;;;37.88;;
58864;SDS011;45702;52.982;6.658;2022-12-18T05:45:09;115.35;;;37.05;;
58864;SDS011;45702;52.982;6.658;2022-12-18T05:47:35;120.55;;;37.65;;
58864;SDS011;45702;52.982;6.658;2022-12-18T05:50:01;115.35;;;38.10;;
58864;SDS011;45702;52.982;6.658;2022-12-18T05:52:28;115.85;;;37.53;;
58864;SDS011;45702;52.982;6.658;2022-12-18T05:54:54;104.57;;;36.22;;
58864;SDS011;45702;52.982;6.658;2022-12-18T05:57:20;117.28;;;37.90;;
58864;SDS011;45702;52.982;6.658;2022-12-18T05:59:46;115.13;;;35.97;;
58864;SDS011;45702;52.982;6.658;2022-12-18T06:02:12;129.30;;;38.20;;
58864;SDS011;45702;52.982;6.658;2022-12-18T06:04:38;113.20;;;37.13;;
58864;SDS011;45702;52.982;6.658;2022-12-18T06:07:04;124.53;;;37.70;;
58864;SDS011;45702;52.982;6.658;2022-12-18T06:09:30;121.07;;;37.97;;
58864;SDS011;45702;52.982;6.658;2022-12-18T06:11:57;112.40;;;38.33;;
58864;SDS011;45702;52.982;6.658;2022-12-18T06:14:23;113.88;;;34.58;;
58864;SDS011;45702;52.982;6.658;2022-12-18T06:16:50;124.97;;;37.25;;
58864;SDS011;45702;52.982;6.658;2022-12-18T06:19:17;117.63;;;37.10;;
58864;SDS011;45702;52.982;6.658;2022-12-18T06:21:43;115.65;;;36.92;;
58864;SDS011;45702;52.982;6.658;2022-12-18T06:24:09;117.72;;;37.60;;
58864;SDS011;45702;52.982;6.658;2022-12-18T06:26:38;118.70;;;37.47;;
58864;SDS011;45702;52.982;6.658;2022-12-18T06:29:05;117.07;;;36.38;;
58864;SDS011;45702;52.982;6.658;2022-12-18T06:31:31;115.53;;;37.80;;
58864;SDS011;45702;52.982;6.658;2022-12-18T06:33:57;118.47;;;37.80;;
58864;SDS011;45702;52.982;6.658;2022-12-18T06:36:23;110.15;;;36.95;;
58864;SDS011;45702;52.982;6.658;2022-12-18T06:38:49;109.68;;;36.13;;
58864;SDS011;45702;52.982;6.658;2022-12-18T06:41:16;107.57;;;36.63;;
58864;SDS011;45702;52.982;6.658;2022-12-18T06:43:42;108.88;;;37.10;;
58864;SDS011;45702;52.982;6.658;2022-12-18T06:46:09;109.22;;;36.35;;
58864;SDS011;45702;52.982;6.658;2022-12-18T06:48:35;102.38;;;35.70;;
58864;SDS011;45702;52.982;6.658;2022-12-18T06:51:01;107.47;;;35.63;;
58864;SDS011;45702;52.982;6.658;2022-12-18T06:53:27;109.82;;;35.42;;
58864;SDS011;45702;52.982;6.658;2022-12-18T06:56:00;103.00;;;35.10;;
58864;SDS011;45702;52.982;6.658;2022-12-18T06:58:27;108.45;;;35.85;;
58864;SDS011;45702;52.982;6.658;2022-12-18T07:00:53;107.60;;;35.97;;
58864;SDS011;45702;52.982;6.658;2022-12-18T07:03:19;106.95;;;34.80;;
58864;SDS011;45702;52.982;6.658;2022-12-18T07:05:45;105.70;;;35.83;;
58864;SDS011;45702;52.982;6.658;2022-12-18T07:08:11;101.78;;;35.70;;
58864;SDS011;45702;52.982;6.658;2022-12-18T07:10:41;115.25;;;36.72;;
58864;SDS011;45702;52.982;6.658;2022-12-18T07:13:07;114.85;;;34.92;;
58864;SDS011;45702;52.982;6.658;2022-12-18T07:15:33;109.20;;;37.00;;
58864;SDS011;45702;52.982;6.658;2022-12-18T07:17:59;119.70;;;37.15;;
58864;SDS011;45702;52.982;6.658;2022-12-18T07:20:25;108.57;;;36.42;;
58864;SDS011;45702;52.982;6.658;2022-12-18T07:22:51;104.78;;;36.28;;
58864;SDS011;45702;52.982;6.658;2022-12-18T07:25:17;104.15;;;34.60;;
58864;SDS011;45702;52.982;6.658;2022-12-18T07:27:43;101.80;;;36.25;;
58864;SDS011;45702;52.982;6.658;2022-12-18T07:30:09;121.88;;;36.60;;
58864;SDS011;45702;52.982;6.658;2022-12-18T07:32:36;103.72;;;34.42;;
58864;SDS011;45702;52.982;6.658;2022-12-18T07:35:02;100.97;;;35.13;;
58864;SDS011;45702;52.982;6.658;2022-12-18T07:37:28;109.05;;;35.33;;
58864;SDS011;45702;52.982;6.658;2022-12-18T07:39:54;102.57;;;35.47;;
58864;SDS011;45702;52.982;6.658;2022-12-18T07:42:20;97.00;;;33.58;;
58864;SDS011;45702;52.982;6.658;2022-12-18T07:44:55;98.57;;;34.42;;
58864;SDS011;45702;52.982;6.658;2022-12-18T07:47:21;90.10;;;33.75;;
58864;SDS011;45702;52.982;6.658;2022-12-18T07:49:47;93.80;;;33.50;;
58864;SDS011;45702;52.982;6.658;2022-12-18T07:52:13;94.35;;;34.75;;
58864;SDS011;45702;52.982;6.658;2022-12-18T07:54:40;93.05;;;34.20;;
58864;SDS011;45702;52.982;6.658;2022-12-18T07:57:06;90.30;;;33.05;;
58864;SDS011;45702;52.982;6.658;2022-12-18T07:59:33;88.97;;;32.92;;
58864;SDS011;45702;52.982;6.658;2022-12-18T08:01:59;96.88;;;34.30;;
58864;SDS011;45702;52.982;6.658;2022-12-18T08:04:25;90.65;;;34.90;;
58864;SDS011;45702;52.982;6.658;2022-12-18T08:06:51;91.65;;;33.47;;
58864;SDS011;45702;52.982;6.658;2022-12-18T08:09:17;95.68;;;33.25;;
58864;SDS011;45702;52.982;6.658;2022-12-18T08:11:43;86.28;;;32.05;;
58864;SDS011;45702;52.982;6.658;2022-12-18T08:14:09;81.15;;;31.45;;
58864;SDS011;45702;52.982;6.658;2022-12-18T08:16:35;92.43;;;33.88;;
58864;SDS011;45702;52.982;6.658;2022-12-18T08:19:02;89.32;;;33.58;;
58864;SDS011;45702;52.982;6.658;2022-12-18T08:21:29;88.90;;;34.25;;
58864;SDS011;45702;52.982;6.658;2022-12-18T08:23:56;84.88;;;31.98;;
58864;SDS011;45702;52.982;6.658;2022-12-18T08:26:23;84.75;;;31.05;;
58864;SDS011;45702;52.982;6.658;2022-12-18T08:28:51;87.07;;;33.08;;
58864;SDS011;45702;52.982;6.658;2022-12-18T08:31:18;84.10;;;33.72;;
58864;SDS011;45702;52.982;6.658;2022-12-18T08:33:44;84.47;;;32.22;;
58864;SDS011;45702;52.982;6.658;2022-12-18T08:36:11;78.32;;;31.83;;
58864;SDS011;45702;52.982;6.658;2022-12-18T08:38:37;74.22;;;29.48;;
58864;SDS011;45702;52.982;6.658;2022-12-18T08:41:04;85.15;;;30.75;;
58864;SDS011;45702;52.982;6.658;2022-12-18T08:43:30;77.88;;;29.65;;
58864;SDS011;45702;52.982;6.658;2022-12-18T08:46:15;73.60;;;29.77;;
58864;SDS011;45702;52.982;6.658;2022-12-18T08:48:41;63.17;;;26.70;;
58864;SDS011;45702;52.982;6.658;2022-12-18T08:51:07;75.60;;;29.45;;
58864;SDS011;45702;52.982;6.658;2022-12-18T08:53:34;67.57;;;28.10;;
58864;SDS011;45702;52.982;6.658;2022-12-18T08:56:01;69.13;;;27.65;;
58864;SDS011;45702;52.982;6.658;2022-12-18T08:58:27;72.50;;;28.63;;
58864;SDS011;45702;52.982;6.658;2022-12-18T09:00:53;70.80;;;27.98;;
58864;SDS011;45702;52.982;6.658;2022-12-18T09:03:19;69.25;;;26.98;;
58864;SDS011;45702;52.982;6.658;2022-12-18T09:05:47;64.93;;;28.38;;
58864;SDS011;45702;52.982;6.658;2022-12-18T09:08:13;83.63;;;33.85;;
58864;SDS011;45702;52.982;6.658;2022-12-18T09:10:43;71.15;;;27.80;;
58864;SDS011;45702;52.982;6.658;2022-12-18T09:13:10;63.85;;;27.98;;
58864;SDS011;45702;52.982;6.658;2022-12-18T09:15:40;65.22;;;26.35;;
58864;SDS011;45702;52.982;6.658;2022-12-18T09:18:07;60.95;;;25.83;;
58864;SDS011;45702;52.982;6.658;2022-12-18T09:20:33;66.10;;;27.75;;
58864;SDS011;45702;52.982;6.658;2022-12-18T09:22:59;61.83;;;25.17;;
58864;SDS011;45702;52.982;6.658;2022-12-18T09:25:25;57.78;;;24.02;;
58864;SDS011;45702;52.982;6.658;2022-12-18T09:27:56;58.22;;;24.63;;
58864;SDS011;45702;52.982;6.658;2022-12-18T09:30:22;55.95;;;23.52;;
58864;SDS011;45702;52.982;6.658;2022-12-18T09:32:48;51.40;;;21.90;;
58864;SDS011;45702;52.982;6.658;2022-12-18T09:35:15;53.08;;;22.65;;
58864;SDS011;45702;52.982;6.658;2022-12-18T09:37:41;46.92;;;21.80;;
58864;SDS011;45702;52.982;6.658;2022-12-18T09:40:12;50.95;;;23.90;;
58864;SDS011;45702;52.982;6.658;2022-12-18T09:42:39;50.72;;;23.08;;
58864;SDS011;45702;52.982;6.658;2022-12-18T09:45:07;47.85;;;20.90;;
58864;SDS011;45702;52.982;6.658;2022-12-18T09:47:37;48.67;;;20.95;;
58864;SDS011;45702;52.982;6.658;2022-12-18T09:50:06;43.08;;;19.77;;
58864;SDS011;45702;52.982;6.658;2022-12-18T09:52:41;51.10;;;20.23;;
58864;SDS011;45702;52.982;6.658;2022-12-18T09:57:36;42.05;;;18.15;;
58864;SDS011;45702;52.982;6.658;2022-12-18T10:00:15;44.15;;;19.17;;
58864;SDS011;45702;52.982;6.658;2022-12-18T10:02:43;39.33;;;18.08;;
58864;SDS011;45702;52.982;6.658;2022-12-18T10:05:13;34.13;;;17.17;;
58864;SDS011;45702;52.982;6.658;2022-12-18T10:07:47;34.38;;;16.23;;
58864;SDS011;45702;52.982;6.658;2022-12-18T10:18:19;35.78;;;14.88;;
58864;SDS011;45702;52.982;6.658;2022-12-18T10:20:51;31.65;;;14.77;;
58864;SDS011;45702;52.982;6.658;2022-12-18T10:23:21;29.33;;;13.65;;
58864;SDS011;45702;52.982;6.658;2022-12-18T10:28:17;29.75;;;12.85;;
58864;SDS011;45702;52.982;6.658;2022-12-18T10:30:44;27.67;;;12.20;;
58864;SDS011;45702;52.982;6.658;2022-12-18T10:33:13;28.98;;;13.27;;
58864;SDS011;45702;52.982;6.658;2022-12-18T10:35:41;25.30;;;11.88;;
58864;SDS011;45702;52.982;6.658;2022-12-18T10:48:25;37.38;;;17.20;;
58864;SDS011;45702;52.982;6.658;2022-12-18T10:50:51;39.38;;;18.27;;
58864;SDS011;45702;52.982;6.658;2022-12-18T10:53:24;38.72;;;18.58;;
58864;SDS011;45702;52.982;6.658;2022-12-18T10:55:52;40.20;;;19.38;;
58864;SDS011;45702;52.982;6.658;2022-12-18T11:01:08;43.28;;;18.92;;
58864;SDS011;45702;52.982;6.658;2022-12-18T11:03:36;39.67;;;19.05;;
58864;SDS011;45702;52.982;6.658;2022-12-18T11:06:04;40.03;;;19.20;;
58864;SDS011;45702;52.982;6.658;2022-12-18T11:08:30;37.42;;;18.23;;
58864;SDS011;45702;52.982;6.658;2022-12-18T11:10:56;37.85;;;18.27;;
58864;SDS011;45702;52.982;6.658;2022-12-18T11:13:23;38.22;;;17.40;;
58864;SDS011;45702;52.982;6.658;2022-12-18T11:15:50;37.67;;;18.10;;
58864;SDS011;45702;52.982;6.658;2022-12-18T11:20:42;46.50;;;19.90;;
58864;SDS011;45702;52.982;6.658;2022-12-18T11:23:15;43.55;;;18.50;;
58864;SDS011;45702;52.982;6.658;2022-12-18T11:25:41;43.20;;;18.55;;
58864;SDS011;45702;52.982;6.658;2022-12-18T11:33:39;38.08;;;18.33;;
58864;SDS011;45702;52.982;6.658;2022-12-18T11:36:08;33.75;;;16.77;;
58864;SDS011;45702;52.982;6.658;2022-12-18T11:38:44;34.33;;;17.40;;
58864;SDS011;45702;52.982;6.658;2022-12-18T11:41:26;36.72;;;16.55;;
58864;SDS011;45702;52.982;6.658;2022-12-18T11:46:43;31.23;;;15.68;;
58864;SDS011;45702;52.982;6.658;2022-12-18T11:49:26;33.03;;;15.25;;
58864;SDS011;45702;52.982;6.658;2022-12-18T11:54:46;30.50;;;15.18;;
58864;SDS011;45702;52.982;6.658;2022-12-18T12:00:12;28.63;;;15.50;;
58864;SDS011;45702;52.982;6.658;2022-12-18T12:05:40;42.58;;;16.48;;
58864;SDS011;45702;52.982;6.658;2022-12-18T12:08:21;43.95;;;16.65;;
58864;SDS011;45702;52.982;6.658;2022-12-18T12:10:59;44.03;;;17.30;;
58864;SDS011;45702;52.982;6.658;2022-12-18T12:26:35;31.98;;;16.88;;
58864;SDS011;45702;52.982;6.658;2022-12-18T12:39:57;43.30;;;16.95;;
58864;SDS011;45702;52.982;6.658;2022-12-18T12:42:41;84.70;;;20.80;;
58864;SDS011;45702;52.982;6.658;2022-12-18T12:45:29;63.20;;;18.58;;
58864;SDS011;45702;52.982;6.658;2022-12-18T12:48:02;78.78;;;23.45;;
58864;SDS011;45702;52.982;6.658;2022-12-18T12:50:29;49.55;;;19.55;;
58864;SDS011;45702;52.982;6.658;2022-12-18T12:52:59;50.35;;;24.35;;
58864;SDS011;45702;52.982;6.658;2022-12-18T12:55:27;38.22;;;19.08;;
58864;SDS011;45702;52.982;6.658;2022-12-18T12:58:04;34.58;;;15.45;;
58864;SDS011;45702;52.982;6.658;2022-12-18T13:00:45;30.20;;;14.65;;
58864;SDS011;45702;52.982;6.658;2022-12-18T13:06:11;30.85;;;14.75;;
58864;SDS011;45702;52.982;6.658;2022-12-18T13:12:01;23.23;;;11.82;;
58864;SDS011;45702;52.982;6.658;2022-12-18T13:14:49;25.33;;;12.60;;
58864;SDS011;45702;52.982;6.658;2022-12-18T13:20:03;25.45;;;11.95;;
58864;SDS011;45702;52.982;6.658;2022-12-18T13:22:38;24.13;;;12.45;;
58864;SDS011;45702;52.982;6.658;2022-12-18T13:27:59;26.20;;;11.65;;
58864;SDS011;45702;52.982;6.658;2022-12-18T13:35:50;23.00;;;11.00;;
58864;SDS011;45702;52.982;6.658;2022-12-18T13:40:53;23.38;;;11.23;;
58864;SDS011;45702;52.982;6.658;2022-12-18T13:48:39;26.85;;;12.45;;
58864;SDS011;45702;52.982;6.658;2022-12-18T13:51:15;23.60;;;11.30;;
58864;SDS011;45702;52.982;6.658;2022-12-18T13:53:44;23.02;;;11.95;;
58864;SDS011;45702;52.982;6.658;2022-12-18T13:56:15;24.55;;;11.90;;
58864;SDS011;45702;52.982;6.658;2022-12-18T14:01:44;24.17;;;11.85;;
58864;SDS011;45702;52.982;6.658;2022-12-18T14:04:11;25.27;;;11.93;;
58864;SDS011;45702;52.982;6.658;2022-12-18T14:06:38;25.45;;;11.82;;
58864;SDS011;45702;52.982;6.658;2022-12-18T14:09:05;24.45;;;11.38;;
58864;SDS011;45702;52.982;6.658;2022-12-18T14:11:33;23.05;;;11.43;;
58864;SDS011;45702;52.982;6.658;2022-12-18T14:14:03;27.13;;;12.75;;
58864;SDS011;45702;52.982;6.658;2022-12-18T14:19:04;25.88;;;11.95;;
58864;SDS011;45702;52.982;6.658;2022-12-18T14:21:34;22.15;;;12.02;;
58864;SDS011;45702;52.982;6.658;2022-12-18T14:26:38;28.27;;;13.95;;
58864;SDS011;45702;52.982;6.658;2022-12-18T14:31:33;27.63;;;13.50;;
58864;SDS011;45702;52.982;6.658;2022-12-18T14:33:59;27.25;;;13.77;;
58864;SDS011;45702;52.982;6.658;2022-12-18T14:36:26;24.60;;;13.15;;
58864;SDS011;45702;52.982;6.658;2022-12-18T14:38:54;28.88;;;13.20;;
58864;SDS011;45702;52.982;6.658;2022-12-18T14:41:21;28.33;;;14.70;;
58864;SDS011;45702;52.982;6.658;2022-12-18T14:43:48;32.83;;;16.10;;
58864;SDS011;45702;52.982;6.658;2022-12-18T14:49:00;29.17;;;14.25;;
58864;SDS011;45702;52.982;6.658;2022-12-18T14:51:36;27.70;;;14.07;;
58864;SDS011;45702;52.982;6.658;2022-12-18T14:54:04;49.28;;;23.23;;
58864;SDS011;45702;52.982;6.658;2022-12-18T14:56:37;28.67;;;15.32;;
58864;SDS011;45702;52.982;6.658;2022-12-18T14:59:15;30.33;;;14.10;;
58864;SDS011;45702;52.982;6.658;2022-12-18T15:04:23;29.90;;;14.30;;
58864;SDS011;45702;52.982;6.658;2022-12-18T15:09:42;33.45;;;15.25;;
58864;SDS011;45702;52.982;6.658;2022-12-18T15:14:56;31.80;;;15.82;;
58864;SDS011;45702;52.982;6.658;2022-12-18T15:17:23;34.03;;;16.63;;
58864;SDS011;45702;52.982;6.658;2022-12-18T15:19:53;30.17;;;15.77;;
58864;SDS011;45702;52.982;6.658;2022-12-18T15:25:00;30.98;;;15.23;;
58864;SDS011;45702;52.982;6.658;2022-12-18T15:27:47;32.83;;;15.75;;
58864;SDS011;45702;52.982;6.658;2022-12-18T15:30:19;35.75;;;17.00;;
58864;SDS011;45702;52.982;6.658;2022-12-18T15:36:00;35.13;;;16.42;;
58864;SDS011;45702;52.982;6.658;2022-12-18T15:38:31;37.55;;;17.23;;
58864;SDS011;45702;52.982;6.658;2022-12-18T15:40:57;32.30;;;16.60;;
58864;SDS011;45702;52.982;6.658;2022-12-18T15:43:23;37.25;;;17.63;;
58864;SDS011;45702;52.982;6.658;2022-12-18T15:46:00;36.67;;;17.67;;
58864;SDS011;45702;52.982;6.658;2022-12-18T15:48:28;32.60;;;16.35;;
58864;SDS011;45702;52.982;6.658;2022-12-18T15:50:55;35.97;;;16.92;;
58864;SDS011;45702;52.982;6.658;2022-12-18T15:53:30;37.10;;;17.45;;
58864;SDS011;45702;52.982;6.658;2022-12-18T15:55:57;32.72;;;16.52;;
58864;SDS011;45702;52.982;6.658;2022-12-18T15:58:45;34.65;;;17.77;;
58864;SDS011;45702;52.982;6.658;2022-12-18T16:01:22;38.50;;;17.63;;
58864;SDS011;45702;52.982;6.658;2022-12-18T16:03:52;39.90;;;18.98;;
58864;SDS011;45702;52.982;6.658;2022-12-18T16:06:22;41.00;;;17.95;;
58864;SDS011;45702;52.982;6.658;2022-12-18T16:08:48;38.58;;;17.92;;
58864;SDS011;45702;52.982;6.658;2022-12-18T16:13:43;36.20;;;17.48;;
58864;SDS011;45702;52.982;6.658;2022-12-18T16:16:10;35.22;;;17.48;;
58864;SDS011;45702;52.982;6.658;2022-12-18T16:18:36;36.05;;;17.98;;
58864;SDS011;45702;52.982;6.658;2022-12-18T16:21:19;36.92;;;18.15;;
58864;SDS011;45702;52.982;6.658;2022-12-18T16:23:46;38.28;;;17.52;;
58864;SDS011;45702;52.982;6.658;2022-12-18T16:26:13;34.85;;;17.52;;
58864;SDS011;45702;52.982;6.658;2022-12-18T16:28:45;37.53;;;17.52;;
58864;SDS011;45702;52.982;6.658;2022-12-18T16:31:17;32.88;;;16.65;;
58864;SDS011;45702;52.982;6.658;2022-12-18T16:33:43;34.97;;;16.52;;
58864;SDS011;45702;52.982;6.658;2022-12-18T16:36:11;35.97;;;17.08;;
58864;SDS011;45702;52.982;6.658;2022-12-18T16:38:38;40.08;;;19.83;;
58864;SDS011;45702;52.982;6.658;2022-12-18T16:41:17;40.95;;;19.67;;
58864;SDS011;45702;52.982;6.658;2022-12-18T16:43:58;43.35;;;19.83;;
58864;SDS011;45702;52.982;6.658;2022-12-18T16:46:25;42.85;;;24.40;;
58864;SDS011;45702;52.982;6.658;2022-12-18T16:48:51;37.75;;;18.50;;
58864;SDS011;45702;52.982;6.658;2022-12-18T16:51:20;36.22;;;17.42;;
58864;SDS011;45702;52.982;6.658;2022-12-18T16:53:52;38.83;;;20.70;;
58864;SDS011;45702;52.982;6.658;2022-12-18T16:56:21;41.15;;;18.67;;
58864;SDS011;45702;52.982;6.658;2022-12-18T16:58:57;39.08;;;18.85;;